createdAt,value
2023-05-20T06:26:22.840Z,79.82
2023-05-20T06:28:32.745Z,80.03
2023-05-20T06:29:34.147Z,80.02
2023-05-20T06:31:46.948Z,78.98
2023-05-20T06:34:00.501Z,79.00
2023-05-20T06:36:17.576Z,78.89
2023-05-20T06:37:19.168Z,78.84
2023-05-20T06:38:21.207Z,78.39
2023-05-20T06:39:22.690Z,77.26
2023-05-20T06:40:24.137Z,77.28
2023-05-20T06:41:26.449Z,77.49
2023-05-20T06:43:50.581Z,78.37
2023-05-20T06:44:54.037Z,78.52
2023-05-20T06:45:55.592Z,77.92
2023-05-20T06:46:57.176Z,77.70
2023-05-20T06:47:58.660Z,77.47
2023-05-20T06:49:00.508Z,77.23
2023-05-20T06:50:01.916Z,77.02
2023-05-20T06:51:04.042Z,77.34
2023-05-20T06:53:07.932Z,76.20
2023-05-20T06:54:09.442Z,76.11
2023-05-20T06:55:11.321Z,75.84
2023-05-20T06:56:12.805Z,75.68
2023-05-20T06:57:14.214Z,75.48
2023-05-20T06:58:15.648Z,74.45
2023-05-20T06:59:17.826Z,73.91
2023-05-20T07:00:19.450Z,74.95
2023-05-20T07:01:20.958Z,75.24
2023-05-20T07:02:23.009Z,74.64
2023-05-20T07:03:24.484Z,74.19
2023-05-20T07:04:25.942Z,74.29
2023-05-20T07:05:28.926Z,74.57
2023-05-20T07:06:31.565Z,73.85
2023-05-20T07:07:32.969Z,73.32
2023-05-20T07:08:34.408Z,73.75
2023-05-20T07:09:35.844Z,73.66
2023-05-20T07:10:37.406Z,74.30
2023-05-20T07:11:38.912Z,74.45
2023-05-20T07:12:40.422Z,74.25
2023-05-20T07:13:41.837Z,74.47
2023-05-20T07:14:43.248Z,74.24
2023-05-20T07:15:48.037Z,74.18
2023-05-20T07:16:49.630Z,74.44
2023-05-20T07:17:51.196Z,74.54
2023-05-20T07:18:52.815Z,74.01
2023-05-20T07:19:54.209Z,74.82
2023-05-20T07:20:56.984Z,74.78
2023-05-20T07:21:58.443Z,74.25
2023-05-20T07:23:01.105Z,74.04
2023-05-20T07:24:02.537Z,73.72
2023-05-20T07:25:04.260Z,73.06
2023-05-20T07:26:05.922Z,72.99
2023-05-20T07:27:08.407Z,73.58
2023-05-20T07:28:09.995Z,74.67
2023-05-20T07:29:11.514Z,75.09
2023-05-20T07:30:13.057Z,74.68
2023-05-20T07:31:14.758Z,74.32
2023-05-20T07:32:16.804Z,73.91
2023-05-20T07:33:19.034Z,73.08
2023-05-20T07:34:20.652Z,73.26
2023-05-20T07:35:22.132Z,74.09
2023-05-20T07:36:23.730Z,73.95
2023-05-20T07:37:25.188Z,73.02
2023-05-20T07:38:26.924Z,74.43
2023-05-20T07:39:29.324Z,74.02
2023-05-20T07:40:30.917Z,73.19
2023-05-20T07:41:32.378Z,72.90
2023-05-20T07:42:34.253Z,73.42
2023-05-20T07:43:35.914Z,73.15
2023-05-20T07:44:37.350Z,73.33
2023-05-20T07:45:38.981Z,73.55
2023-05-20T07:46:41.799Z,72.77
2023-05-20T07:47:43.440Z,72.11
2023-05-20T07:48:45.346Z,72.75
2023-05-20T07:49:46.882Z,72.74
2023-05-20T07:50:48.319Z,72.63
2023-05-20T07:51:49.801Z,71.90
2023-05-20T07:52:56.398Z,71.43
2023-05-20T07:53:58.579Z,71.12
2023-05-20T07:54:59.997Z,70.92
2023-05-20T07:56:01.453Z,71.02
2023-05-20T07:57:02.910Z,71.10
2023-05-20T07:58:04.460Z,71.21
2023-05-20T07:59:06.073Z,70.94
2023-05-20T08:00:09.748Z,71.91
2023-05-20T08:01:17.279Z,71.48
2023-05-20T08:02:18.766Z,71.36
2023-05-20T08:03:22.197Z,71.62
2023-05-20T08:04:23.804Z,71.71
2023-05-20T08:05:25.530Z,71.25
2023-05-20T08:06:29.577Z,71.14
2023-05-20T08:07:31.828Z,70.45
2023-05-20T08:08:33.418Z,69.90
2023-05-20T08:09:34.910Z,69.68
2023-05-20T08:10:36.929Z,69.43
2023-05-20T08:11:38.359Z,69.47
2023-05-20T08:12:39.783Z,68.61
2023-05-20T08:13:41.380Z,69.05
2023-05-20T08:14:44.125Z,69.10
2023-05-20T08:15:45.592Z,69.01
2023-05-20T08:16:47.152Z,69.12
2023-05-20T08:17:48.638Z,70.01
2023-05-20T08:18:50.234Z,69.41
2023-05-20T08:19:51.665Z,68.80
2023-05-20T08:20:53.086Z,68.11
2023-05-20T08:21:54.595Z,65.35
2023-05-20T08:22:56.119Z,67.75
2023-05-20T08:23:57.722Z,66.25
2023-05-20T08:24:59.219Z,66.11
2023-05-20T08:26:03.698Z,65.59
2023-05-20T08:27:05.279Z,65.87
2023-05-20T08:28:07.248Z,66.52
2023-05-20T08:29:08.791Z,66.04
2023-05-20T08:30:10.766Z,66.34
2023-05-20T08:31:12.233Z,64.71
2023-05-20T08:32:13.712Z,65.91
2023-05-20T08:33:15.731Z,66.65
2023-05-20T08:34:17.154Z,66.58
2023-05-20T08:35:18.642Z,65.78
2023-05-20T08:36:20.104Z,65.46
2023-05-20T08:37:21.518Z,66.37
2023-05-20T08:38:23.009Z,66.04
2023-05-20T08:39:25.536Z,65.74
2023-05-20T08:40:27.419Z,65.12
2023-05-20T08:41:29.147Z,65.05
2023-05-20T08:42:30.875Z,64.30
2023-05-20T08:43:32.561Z,65.32
2023-05-20T08:44:35.360Z,65.16
2023-05-20T08:45:38.799Z,64.91
2023-05-20T08:46:41.360Z,64.79
2023-05-20T08:47:43.596Z,65.06
2023-05-20T08:48:45.813Z,64.60
2023-05-20T08:49:49.014Z,65.22
2023-05-20T08:50:52.149Z,66.13
2023-05-20T08:51:53.725Z,65.97
2023-05-20T08:52:55.177Z,65.22
2023-05-20T08:53:56.860Z,65.43
2023-05-20T08:54:59.157Z,66.38
2023-05-20T08:56:03.261Z,65.23
2023-05-20T08:57:05.562Z,66.76
2023-05-20T08:58:07.061Z,66.50
2023-05-20T08:59:09.358Z,67.40
2023-05-20T09:00:13.460Z,67.23
2023-05-20T09:01:15.103Z,67.76
2023-05-20T09:02:17.507Z,67.56
2023-05-20T09:03:20.412Z,67.28
2023-05-20T09:04:21.976Z,66.83
2023-05-20T09:05:23.491Z,65.26
2023-05-20T09:06:25.014Z,65.03
2023-05-20T09:07:28.821Z,65.61
2023-05-20T09:08:31.414Z,66.49
2023-05-20T09:09:35.136Z,67.38
2023-05-20T09:10:38.177Z,66.97
2023-05-20T09:11:41.567Z,66.52
2023-05-20T09:12:43.027Z,66.10
2023-05-20T09:13:44.513Z,65.52
2023-05-20T09:14:45.990Z,63.80
2023-05-20T09:15:47.472Z,64.26
2023-05-20T09:16:49.476Z,63.53
2023-05-20T09:17:51.158Z,61.73
2023-05-20T09:18:56.208Z,62.19
2023-05-20T09:19:57.732Z,61.20
2023-05-20T09:21:05.774Z,62.33
2023-05-20T09:22:07.489Z,61.33
2023-05-20T09:23:10.143Z,61.76
2023-05-20T09:24:11.609Z,61.47
2023-05-20T09:25:14.183Z,60.90
2023-05-20T09:26:18.087Z,61.59
2023-05-20T09:27:21.077Z,60.90
2023-05-20T09:28:25.175Z,60.72
2023-05-20T09:29:27.301Z,61.53
2023-05-20T09:30:28.759Z,62.01
2023-05-20T09:31:34.188Z,60.99
2023-05-20T09:32:35.827Z,61.89
2023-05-20T09:33:37.399Z,63.21
2023-05-20T09:34:38.873Z,63.33
2023-05-20T09:35:40.332Z,63.39
2023-05-20T09:36:43.727Z,63.48
2023-05-20T09:37:47.890Z,62.65
2023-05-20T09:38:53.101Z,62.93
2023-05-20T09:39:59.496Z,62.16
2023-05-20T09:41:08.259Z,62.78
2023-05-20T09:42:18.603Z,62.40
2023-05-20T09:43:20.262Z,62.52
2023-05-20T09:44:23.097Z,62.15
2023-05-20T09:45:24.721Z,61.68
2023-05-20T09:46:27.943Z,61.48
2023-05-20T09:47:30.226Z,63.13
2023-05-20T09:48:34.187Z,62.71
2023-05-20T09:49:36.466Z,63.05
2023-05-20T09:50:39.381Z,61.96
2023-05-20T09:51:42.078Z,61.91
2023-05-20T09:52:44.222Z,61.23
2023-05-20T09:53:45.828Z,61.73
2023-05-20T09:54:48.441Z,60.86
2023-05-20T09:55:52.230Z,61.78
2023-05-20T09:56:54.690Z,61.53
2023-05-20T09:57:56.764Z,61.99
2023-05-20T09:58:59.116Z,61.36
2023-05-20T10:00:01.550Z,61.56
2023-05-20T10:01:03.478Z,62.19
2023-05-20T10:02:06.749Z,62.97
2023-05-20T10:03:08.383Z,61.67
2023-05-20T10:04:13.498Z,61.12
2023-05-20T10:05:21.730Z,61.36
2023-05-20T10:06:40.139Z,59.97
2023-05-20T10:07:42.808Z,58.77
2023-05-20T10:09:02.767Z,60.27
2023-05-20T10:10:33.207Z,60.34
2023-05-20T10:11:52.357Z,59.89
2023-05-20T10:13:09.133Z,59.05
2023-05-20T10:14:22.634Z,59.33
2023-05-20T10:15:55.692Z,59.38
2023-05-20T10:17:24.618Z,57.09
2023-05-20T10:18:26.144Z,56.65
2023-05-20T10:19:31.229Z,56.43
2023-05-20T10:20:32.953Z,57.87
2023-05-20T10:21:34.381Z,58.44
2023-05-20T10:22:36.171Z,58.36
2023-05-20T10:23:37.722Z,59.01
2023-05-20T10:24:41.524Z,58.23
2023-05-20T10:25:54.179Z,58.25
2023-05-20T10:26:55.634Z,57.59
2023-05-20T10:28:09.512Z,57.11
2023-05-20T10:29:22.787Z,57.56
2023-05-20T10:30:24.269Z,57.18
2023-05-20T10:31:26.081Z,56.92
2023-05-20T10:32:31.145Z,55.44
2023-05-20T10:33:42.673Z,56.91
2023-05-20T10:34:50.646Z,57.46
2023-05-20T10:35:52.394Z,55.66
2023-05-20T10:36:53.832Z,57.79
2023-05-20T10:38:07.302Z,57.55
2023-05-20T10:39:18.445Z,57.81
2023-05-20T10:40:21.489Z,58.17
2023-05-20T10:41:27.951Z,59.10
2023-05-20T10:42:32.278Z,58.75
2023-05-20T10:43:33.727Z,58.80
2023-05-20T10:44:45.574Z,57.69
2023-05-20T10:45:51.913Z,57.04
2023-05-20T10:47:23.817Z,56.84
2023-05-20T10:48:28.986Z,56.40
2023-05-20T10:49:35.176Z,56.16
2023-05-20T10:50:38.335Z,55.94
2023-05-20T10:51:39.994Z,54.97
2023-05-20T10:52:41.606Z,55.34
2023-05-20T10:53:46.195Z,55.40
2023-05-20T10:54:58.084Z,55.71
2023-05-20T10:55:59.585Z,55.29
2023-05-20T10:57:06.136Z,54.46
2023-05-20T10:58:07.998Z,54.19
2023-05-20T10:59:10.008Z,53.96
2023-05-20T11:00:13.276Z,53.63
2023-05-20T11:01:16.872Z,52.05
2023-05-20T11:02:19.727Z,52.03
2023-05-20T11:03:25.278Z,53.81
2023-05-20T11:04:28.658Z,53.15
2023-05-20T11:05:31.977Z,53.66
2023-05-20T11:06:34.176Z,54.32
2023-05-20T11:07:35.621Z,54.30
2023-05-20T11:08:37.061Z,55.12
2023-05-20T11:09:39.035Z,56.11
2023-05-20T11:10:42.381Z,57.19
2023-05-20T11:11:43.902Z,56.49
2023-05-20T11:12:45.652Z,56.00
2023-05-20T11:13:51.953Z,55.83
2023-05-20T11:14:54.046Z,56.68
2023-05-20T11:15:55.712Z,56.78
2023-05-20T11:16:59.074Z,55.89
2023-05-20T11:18:04.974Z,56.18
2023-05-20T11:19:15.593Z,55.16
2023-05-20T11:20:17.063Z,54.39
2023-05-20T11:21:19.940Z,54.88
2023-05-20T11:22:21.761Z,54.26
2023-05-20T11:23:23.804Z,53.85
2023-05-20T11:24:27.361Z,54.41
2023-05-20T11:25:29.001Z,53.89
2023-05-20T11:26:31.874Z,53.64
2023-05-20T11:27:34.189Z,53.62
2023-05-20T11:28:36.226Z,53.67
2023-05-20T11:29:40.723Z,53.04
2023-05-20T11:30:45.473Z,52.57
2023-05-20T11:31:49.809Z,52.93
2023-05-20T11:33:01.691Z,51.94
2023-05-20T11:34:04.283Z,52.49
2023-05-20T11:35:07.399Z,52.95
2023-05-20T11:36:26.279Z,52.14
2023-05-20T11:37:28.996Z,52.03
2023-05-20T11:38:30.609Z,51.75
2023-05-20T11:39:32.955Z,51.90
2023-05-20T11:40:46.273Z,53.19
2023-05-20T11:41:51.764Z,52.65
2023-05-20T11:42:58.138Z,51.84
2023-05-20T11:44:00.576Z,51.10
2023-05-20T11:45:02.768Z,51.54
2023-05-20T11:46:05.455Z,51.86
2023-05-20T11:47:06.904Z,51.88
2023-05-20T11:48:09.390Z,51.50
2023-05-20T11:49:10.948Z,51.83
2023-05-20T11:50:18.607Z,52.23
2023-05-20T11:51:29.507Z,52.04
2023-05-20T11:52:33.838Z,51.16
2023-05-20T11:53:35.326Z,51.20
2023-05-20T11:54:36.763Z,51.88
2023-05-20T11:55:56.020Z,52.90
2023-05-20T11:56:58.851Z,51.99
2023-05-20T11:58:01.617Z,52.11
2023-05-20T11:59:05.220Z,52.67
2023-05-20T12:00:09.981Z,53.02
2023-05-20T12:01:21.518Z,51.74
2023-05-20T12:02:24.478Z,51.77
2023-05-20T12:03:26.260Z,52.72
2023-05-20T12:04:27.924Z,53.27
2023-05-20T12:05:29.376Z,53.82
2023-05-20T12:06:31.595Z,53.61
2023-05-20T12:07:33.013Z,53.61
2023-05-20T12:08:34.523Z,54.18
2023-05-20T12:09:36.091Z,54.29
2023-05-20T12:10:38.064Z,54.42
2023-05-20T12:11:41.588Z,54.43
2023-05-20T12:12:45.392Z,54.36
2023-05-20T12:13:46.959Z,53.84
2023-05-20T12:14:48.369Z,53.30
2023-05-20T12:15:49.811Z,54.62
2023-05-20T12:16:52.624Z,54.81
2023-05-20T12:17:54.209Z,55.14
2023-05-20T12:18:55.787Z,55.70
2023-05-20T12:19:57.380Z,55.45
2023-05-20T12:20:59.614Z,55.94
2023-05-20T12:22:02.418Z,56.32
2023-05-20T12:23:04.594Z,55.63
2023-05-20T12:24:08.271Z,55.94
2023-05-20T12:25:12.157Z,55.60
2023-05-20T12:26:13.641Z,55.19
2023-05-20T12:27:15.034Z,55.42
2023-05-20T12:28:17.605Z,55.56
2023-05-20T12:29:19.737Z,55.48
2023-05-20T12:30:22.962Z,55.29
2023-05-20T12:31:25.740Z,55.05
2023-05-20T12:32:27.199Z,54.13
2023-05-20T12:33:28.720Z,53.62
2023-05-20T12:34:30.548Z,53.94
2023-05-20T12:35:39.202Z,53.74
2023-05-20T12:36:40.651Z,51.53
2023-05-20T12:37:43.167Z,52.10
2023-05-20T12:38:44.678Z,51.58
2023-05-20T12:39:46.598Z,51.45
2023-05-20T12:40:48.124Z,49.95
2023-05-20T12:41:49.578Z,47.88
2023-05-20T12:42:51.302Z,47.50
2023-05-20T12:43:52.753Z,46.72
2023-05-20T12:44:54.228Z,47.30
2023-05-20T12:45:56.155Z,46.81
2023-05-20T12:46:57.613Z,47.18
2023-05-20T12:47:59.564Z,45.83
2023-05-20T12:49:01.442Z,46.22
2023-05-20T12:50:03.750Z,46.07
2023-05-20T12:51:05.869Z,44.06
2023-05-20T12:52:11.837Z,44.74
2023-05-20T12:53:20.587Z,45.20
2023-05-20T12:54:22.031Z,45.34
2023-05-20T12:55:23.632Z,44.41
2023-05-20T12:56:26.361Z,43.46
2023-05-20T12:57:28.056Z,43.66
2023-05-20T12:58:29.582Z,45.51
2023-05-20T12:59:30.995Z,45.96
2023-05-20T13:00:32.666Z,46.15
2023-05-20T13:01:34.432Z,47.60
2023-05-20T13:02:39.672Z,48.20
2023-05-20T13:03:41.455Z,48.77
2023-05-20T13:04:42.958Z,48.30
2023-05-20T13:05:44.492Z,47.60
2023-05-20T13:06:45.928Z,47.44
2023-05-20T13:07:47.340Z,47.09
2023-05-20T13:08:48.809Z,47.22
2023-05-20T13:09:50.414Z,46.29
2023-05-20T13:10:51.864Z,45.81
2023-05-20T13:11:53.337Z,45.44
2023-05-20T13:12:54.756Z,44.96
2023-05-20T13:13:59.384Z,46.54
2023-05-20T13:15:00.848Z,46.14
2023-05-20T13:16:02.758Z,46.34
2023-05-20T13:17:04.598Z,45.23
2023-05-20T13:18:07.046Z,47.01
2023-05-20T13:19:08.795Z,47.22
2023-05-20T13:20:11.054Z,47.51
2023-05-20T13:21:12.438Z,48.15
2023-05-20T13:22:13.905Z,48.06
2023-05-20T13:23:15.444Z,48.60
2023-05-20T13:24:18.058Z,48.78
2023-05-20T13:25:19.556Z,48.74
2023-05-20T13:26:21.863Z,49.50
2023-05-20T13:27:23.314Z,48.63
2023-05-20T13:28:24.745Z,48.93
2023-05-20T13:29:26.758Z,49.38
2023-05-20T13:30:28.642Z,49.23
2023-05-20T13:31:30.130Z,49.56
2023-05-20T13:32:31.711Z,49.81
2023-05-20T13:33:33.128Z,50.05
2023-05-20T13:34:34.584Z,50.49
2023-05-20T13:35:45.327Z,50.57
2023-05-20T13:36:48.008Z,50.56
2023-05-20T13:37:49.548Z,51.64
2023-05-20T13:38:51.478Z,51.87
2023-05-20T13:39:52.962Z,51.53
2023-05-20T13:40:54.512Z,51.96
2023-05-20T13:41:56.400Z,51.96
2023-05-20T13:42:58.704Z,52.64
2023-05-20T13:44:00.073Z,52.16
2023-05-20T13:45:01.827Z,51.47
2023-05-20T13:46:03.397Z,51.08
2023-05-20T13:47:05.219Z,50.43
2023-05-20T13:48:06.852Z,50.18
2023-05-20T13:49:14.171Z,49.43
2023-05-20T13:50:19.925Z,49.43
2023-05-20T13:51:21.529Z,48.75
2023-05-20T13:52:22.939Z,48.27
2023-05-20T13:53:24.646Z,47.74
2023-05-20T13:54:26.158Z,47.87
2023-05-20T13:55:28.268Z,47.70
2023-05-20T13:56:29.892Z,46.47
2023-05-20T13:57:31.479Z,46.23
2023-05-20T13:58:32.899Z,46.27
2023-05-20T13:59:35.061Z,44.91
2023-05-20T14:00:37.330Z,45.70
2023-05-20T14:01:41.171Z,45.11
2023-05-20T14:02:42.970Z,44.74
2023-05-20T14:03:45.052Z,43.98
2023-05-20T14:04:47.082Z,45.07
2023-05-20T14:05:48.553Z,44.22
2023-05-20T14:06:50.071Z,43.68
2023-05-20T14:07:51.595Z,43.90
2023-05-20T14:08:55.186Z,43.05
2023-05-20T14:09:56.716Z,44.60
2023-05-20T14:10:58.442Z,44.67
2023-05-20T14:11:59.908Z,44.39
2023-05-20T14:13:02.148Z,44.40
2023-05-20T14:14:03.603Z,45.36
2023-05-20T14:15:05.570Z,44.88
2023-05-20T14:16:07.478Z,44.67
2023-05-20T14:17:09.054Z,45.29
2023-05-20T14:18:11.774Z,44.71
2023-05-20T14:19:13.462Z,44.90
2023-05-20T14:20:15.742Z,44.21
2023-05-20T14:21:17.143Z,43.97
2023-05-20T14:22:19.878Z,43.60
2023-05-20T14:23:21.461Z,43.73
2023-05-20T14:24:23.905Z,43.67
2023-05-20T14:25:25.748Z,44.11
2023-05-20T14:26:27.191Z,43.54
2023-05-20T14:27:30.396Z,44.92
2023-05-20T14:28:31.802Z,46.09
2023-05-20T14:29:33.220Z,46.86
2023-05-20T14:30:34.994Z,47.17
2023-05-20T14:31:38.616Z,47.00
2023-05-20T14:32:40.758Z,47.99
2023-05-20T14:33:42.256Z,48.22
2023-05-20T14:34:43.734Z,48.55
2023-05-20T14:35:45.544Z,48.69
2023-05-20T14:36:47.601Z,48.60
2023-05-20T14:37:49.187Z,48.96
2023-05-20T14:38:50.725Z,49.67
2023-05-20T14:39:52.285Z,49.69
2023-05-20T14:40:53.708Z,48.39
2023-05-20T14:41:55.155Z,47.58
2023-05-20T14:42:56.660Z,47.94
2023-05-20T14:43:58.199Z,49.64
2023-05-20T14:44:59.698Z,50.28
2023-05-20T14:46:02.591Z,49.85
2023-05-20T14:47:04.760Z,49.96
2023-05-20T14:48:07.035Z,49.81
2023-05-20T14:49:08.549Z,49.98
2023-05-20T14:50:10.680Z,50.31
2023-05-20T14:51:12.369Z,50.34
2023-05-20T14:52:13.810Z,51.20
2023-05-20T14:53:16.679Z,50.37
2023-05-20T14:54:19.104Z,50.33
2023-05-20T14:55:20.552Z,50.11
2023-05-20T14:56:22.720Z,49.63
2023-05-20T14:57:24.149Z,49.21
2023-05-20T14:58:26.044Z,49.57
2023-05-20T14:59:27.697Z,48.50
2023-05-20T15:00:29.116Z,47.98
2023-05-20T15:01:30.785Z,47.74
2023-05-20T15:02:32.327Z,48.43
2023-05-20T15:03:33.850Z,48.86
2023-05-20T15:04:35.540Z,48.82
2023-05-20T15:05:37.053Z,49.34
2023-05-20T15:06:38.769Z,49.77
2023-05-20T15:07:40.257Z,50.73
2023-05-20T15:08:42.175Z,51.10
2023-05-20T15:09:43.954Z,50.37
2023-05-20T15:10:45.706Z,50.85
2023-05-20T15:11:47.168Z,50.51
2023-05-20T15:12:48.642Z,50.65
2023-05-20T15:13:51.341Z,51.24
2023-05-20T15:14:52.751Z,50.97
2023-05-20T15:15:54.291Z,50.13
2023-05-20T15:16:55.830Z,49.81
2023-05-20T15:17:57.573Z,50.21
2023-05-20T15:18:59.145Z,50.14
2023-05-20T15:20:00.715Z,49.46
2023-05-20T15:21:02.280Z,49.47
2023-05-20T15:22:03.997Z,49.31
2023-05-20T15:23:05.499Z,49.25
2023-05-20T15:24:06.944Z,49.27
2023-05-20T15:25:08.417Z,48.83
2023-05-20T15:26:12.044Z,48.18
2023-05-20T15:27:13.506Z,47.68
2023-05-20T15:28:19.396Z,48.47
2023-05-20T15:29:24.439Z,48.47
2023-05-20T15:30:25.893Z,49.06
2023-05-20T15:31:27.342Z,49.46
2023-05-20T15:32:28.891Z,49.01
2023-05-20T15:33:30.682Z,49.43
2023-05-20T15:34:32.149Z,49.00
2023-05-20T15:35:33.563Z,48.92
2023-05-20T15:36:34.993Z,49.95
2023-05-20T15:37:36.450Z,50.12
2023-05-20T15:38:37.856Z,50.30
2023-05-20T15:39:39.405Z,50.10
2023-05-20T15:40:41.398Z,50.79
2023-05-20T15:41:43.202Z,50.74
2023-05-20T15:42:44.582Z,50.91
2023-05-20T15:43:46.026Z,50.17
2023-05-20T15:44:47.485Z,50.08
2023-05-20T15:45:48.985Z,50.46
2023-05-20T15:46:50.440Z,50.91
2023-05-20T15:47:51.953Z,51.59
2023-05-20T15:48:56.110Z,51.50
2023-05-20T15:49:57.964Z,52.24
2023-05-20T15:50:59.362Z,52.48
2023-05-20T15:52:03.476Z,52.71
2023-05-20T15:53:14.805Z,53.40
2023-05-20T15:54:16.217Z,53.93
2023-05-20T15:55:17.831Z,54.39
2023-05-20T15:56:19.490Z,54.78
2023-05-20T15:57:20.938Z,54.93
2023-05-20T15:58:22.403Z,55.39
2023-05-20T15:59:24.194Z,55.67
2023-05-20T16:00:25.739Z,54.90
2023-05-20T16:01:28.739Z,55.48
2023-05-20T16:03:33.512Z,55.24
2023-05-20T16:04:35.074Z,55.91
2023-05-20T16:05:37.336Z,55.99
2023-05-20T16:06:38.789Z,55.95
2023-05-20T16:07:42.119Z,56.27
2023-05-20T16:08:43.578Z,57.18
2023-05-20T16:09:45.022Z,56.77
2023-05-20T16:10:46.511Z,55.97
2023-05-20T16:11:48.011Z,56.26
2023-05-20T16:12:49.384Z,56.13
2023-05-20T16:13:50.818Z,56.19
2023-05-20T16:14:52.397Z,55.96
2023-05-20T16:15:57.477Z,55.68
2023-05-20T16:16:58.977Z,55.87
2023-05-20T16:18:00.412Z,55.43
2023-05-20T16:19:01.941Z,55.26
2023-05-20T16:20:06.867Z,55.32
2023-05-20T16:21:08.278Z,55.36
2023-05-20T16:22:09.720Z,55.63
2023-05-20T16:23:11.353Z,55.46
2023-05-20T16:24:12.879Z,55.30
2023-05-20T16:25:14.601Z,55.60
2023-05-20T16:26:16.179Z,55.68
2023-05-20T16:27:17.662Z,55.73
2023-05-20T16:28:19.206Z,55.38
2023-05-20T16:29:20.913Z,55.29
2023-05-20T16:30:22.306Z,54.97
2023-05-20T16:31:23.922Z,54.50
2023-05-20T16:32:25.737Z,54.73
2023-05-20T16:33:27.239Z,54.76
2023-05-20T16:34:28.755Z,54.12
2023-05-20T16:35:30.428Z,54.00
2023-05-20T16:36:31.973Z,54.51
2023-05-20T16:37:34.664Z,55.05
2023-05-20T16:38:36.440Z,55.21
2023-05-20T16:39:37.834Z,55.21
2023-05-20T16:40:39.301Z,55.19
2023-05-20T16:41:41.529Z,54.70
2023-05-20T16:42:44.175Z,55.03
2023-05-20T16:43:45.617Z,54.64
2023-05-20T16:44:49.958Z,54.80
2023-05-20T16:45:51.690Z,55.36
2023-05-20T16:46:54.291Z,56.29
2023-05-20T16:47:56.441Z,56.38
2023-05-20T16:48:57.998Z,56.62
2023-05-20T16:49:59.439Z,56.61
2023-05-20T16:51:01.122Z,57.13
2023-05-20T16:52:03.039Z,57.19
2023-05-20T16:53:04.638Z,57.44
2023-05-20T16:54:06.357Z,57.65
2023-05-20T16:55:08.499Z,57.59
2023-05-20T16:56:15.984Z,58.61
2023-05-20T16:57:18.781Z,58.67
2023-05-20T16:58:20.223Z,58.12
2023-05-20T16:59:24.853Z,58.71
2023-05-20T17:00:26.764Z,58.21
2023-05-20T17:01:28.991Z,57.99
2023-05-20T17:02:30.928Z,58.88
2023-05-20T17:03:32.513Z,58.85
2023-05-20T17:04:33.962Z,58.63
2023-05-20T17:05:35.574Z,58.68
2023-05-20T17:06:39.712Z,59.06
2023-05-20T17:07:41.183Z,59.48
